createdAt,value
2023-05-04T04:04:13.370Z,10.30
2023-05-04T04:06:43.415Z,11.57
2023-05-04T04:09:12.163Z,10.10
2023-05-04T04:11:40.257Z,11.03
2023-05-04T04:14:08.355Z,9.60
2023-05-04T04:16:36.841Z,9.50
2023-05-04T04:19:04.813Z,9.07
2023-05-04T04:21:34.276Z,7.67
2023-05-04T04:24:02.617Z,6.30
2023-05-04T04:26:30.468Z,8.03
2023-05-04T04:28:58.226Z,6.53
2023-05-04T04:31:26.635Z,7.23
2023-05-04T04:33:54.565Z,5.03
2023-05-04T04:36:22.863Z,5.90
2023-05-04T04:38:52.798Z,5.73
2023-05-04T04:41:20.884Z,5.47
2023-05-04T04:43:48.758Z,5.37
2023-05-04T04:46:17.520Z,4.90
2023-05-04T04:48:45.472Z,5.67
2023-05-04T04:51:13.638Z,5.53
2023-05-04T04:53:42.207Z,5.23
2023-05-04T04:56:11.718Z,4.07
2023-05-04T04:58:39.464Z,4.87
2023-05-04T05:01:08.253Z,5.40
2023-05-04T05:03:36.450Z,5.17
2023-05-04T05:06:04.322Z,5.03
2023-05-04T05:08:34.407Z,5.03
2023-05-04T05:11:02.099Z,4.80
2023-05-04T05:13:31.430Z,5.47
2023-05-04T05:15:59.796Z,5.00
2023-05-04T05:18:29.450Z,5.70
2023-05-04T05:20:57.865Z,4.73
2023-05-04T05:23:26.019Z,5.67
2023-05-04T05:25:56.133Z,4.50
2023-05-04T05:28:24.717Z,5.87
2023-05-04T05:30:54.803Z,5.30
2023-05-04T05:33:23.730Z,5.77
2023-05-04T05:35:52.636Z,6.07
2023-05-04T05:38:21.939Z,5.77
2023-05-04T05:40:49.757Z,5.90
2023-05-04T05:43:17.900Z,4.90
2023-05-04T05:45:46.278Z,5.30
2023-05-04T05:48:15.752Z,4.50
2023-05-04T05:50:43.520Z,5.43
2023-05-04T05:53:12.006Z,5.57
2023-05-04T05:55:39.761Z,5.37
2023-05-04T05:58:08.686Z,5.73
2023-05-04T06:00:36.997Z,5.27
2023-05-04T06:03:05.684Z,6.00
2023-05-04T06:05:36.652Z,5.30
2023-05-04T06:08:04.610Z,6.13
2023-05-04T06:10:33.530Z,6.00
2023-05-04T06:13:01.927Z,5.33
2023-05-04T06:15:30.190Z,4.77
2023-05-04T06:17:58.193Z,4.83
2023-05-04T06:20:26.572Z,5.50
2023-05-04T06:22:55.947Z,5.30
2023-05-04T06:25:23.910Z,4.70
2023-05-04T06:27:53.006Z,4.93
2023-05-04T06:30:24.306Z,5.20
2023-05-04T06:32:52.344Z,4.97
2023-05-04T06:35:20.971Z,5.20
2023-05-04T06:37:48.899Z,5.47
2023-05-04T06:40:20.740Z,4.60
2023-05-04T06:42:49.276Z,4.83
2023-05-04T06:45:17.421Z,5.10
2023-05-04T06:47:45.793Z,4.80
2023-05-04T06:50:14.860Z,4.80
2023-05-04T06:52:45.292Z,5.43
2023-05-04T06:55:13.670Z,3.93
2023-05-04T06:57:43.672Z,5.60
2023-05-04T07:00:12.691Z,4.10
2023-05-04T07:02:40.654Z,4.00
2023-05-04T07:05:09.498Z,4.03
2023-05-04T07:07:38.180Z,3.07
2023-05-04T07:10:07.046Z,3.60
2023-05-04T07:12:35.681Z,2.57
2023-05-04T07:15:06.701Z,3.10
2023-05-04T07:17:34.824Z,3.60
2023-05-04T07:20:03.894Z,2.90
2023-05-04T07:22:32.850Z,2.70
2023-05-04T07:25:01.421Z,3.10
2023-05-04T07:27:31.993Z,3.50
2023-05-04T07:30:01.778Z,3.30
2023-05-04T07:32:31.514Z,3.10
2023-05-04T07:34:59.794Z,2.90
2023-05-04T07:37:27.771Z,3.40
2023-05-04T07:39:56.376Z,3.40
2023-05-04T07:42:24.403Z,3.20
2023-05-04T07:44:53.338Z,3.10
2023-05-04T07:47:22.728Z,2.97
2023-05-04T07:49:52.322Z,2.67
2023-05-04T07:52:20.506Z,2.77
2023-05-04T07:54:49.156Z,3.43
2023-05-04T07:57:17.530Z,2.43
2023-05-04T07:59:45.662Z,2.97
2023-05-04T08:02:14.127Z,3.23
2023-05-04T08:04:42.163Z,4.70
2023-05-04T08:07:11.794Z,3.00
2023-05-04T08:09:40.336Z,3.07
2023-05-04T08:12:09.892Z,3.20
2023-05-04T08:14:38.458Z,2.67
2023-05-04T08:17:07.019Z,3.63
2023-05-04T08:19:35.451Z,2.80
2023-05-04T08:22:04.565Z,3.00
2023-05-04T08:24:34.018Z,3.70
2023-05-04T08:27:07.822Z,3.57
2023-05-04T08:29:38.029Z,2.97
2023-05-04T08:32:07.728Z,3.10
2023-05-04T08:34:36.656Z,4.17
2023-05-04T08:37:06.359Z,3.20
2023-05-04T08:39:35.810Z,2.57
2023-05-04T08:42:03.840Z,3.30
2023-05-04T08:44:32.420Z,3.20
2023-05-04T08:47:00.432Z,3.20
2023-05-04T08:49:29.172Z,3.30
2023-05-04T08:51:58.166Z,3.40
2023-05-04T08:54:27.334Z,3.53
2023-05-04T08:56:59.218Z,3.60
2023-05-04T08:59:29.781Z,3.17
2023-05-04T09:02:00.405Z,3.47
2023-05-04T09:04:29.670Z,3.10
2023-05-04T09:06:58.547Z,2.70
2023-05-04T09:09:29.580Z,3.40
2023-05-04T09:11:59.722Z,3.53
2023-05-04T09:14:36.106Z,3.10
2023-05-04T09:17:05.086Z,2.73
2023-05-04T09:19:34.894Z,3.43
2023-05-04T09:22:03.939Z,2.83
2023-05-04T09:24:31.952Z,3.20
2023-05-04T09:27:11.390Z,3.10
2023-05-04T09:29:40.773Z,2.17
2023-05-04T09:32:14.764Z,3.27
2023-05-04T09:34:52.936Z,2.47
2023-05-04T09:37:22.421Z,2.73
2023-05-04T09:39:55.437Z,2.60
2023-05-04T09:42:27.344Z,2.60
2023-05-04T09:45:03.231Z,2.70
2023-05-04T09:47:36.318Z,2.80
2023-05-04T09:50:20.758Z,2.60
2023-05-04T09:52:50.479Z,3.10
2023-05-04T09:55:20.343Z,2.23
2023-05-04T09:57:51.969Z,3.13
2023-05-04T10:00:21.477Z,2.30
2023-05-04T10:02:50.226Z,2.80
2023-05-04T10:05:24.716Z,2.67
2023-05-04T10:07:53.319Z,1.97
2023-05-04T10:10:21.938Z,2.20
2023-05-04T10:12:53.293Z,2.40
2023-05-04T10:15:24.745Z,2.70
2023-05-04T10:18:05.003Z,2.30
2023-05-04T10:20:55.914Z,2.60
2023-05-04T10:23:45.789Z,2.53
2023-05-04T10:26:36.289Z,2.00
2023-05-04T10:29:14.552Z,2.20
2023-05-04T10:31:46.107Z,2.60
2023-05-04T10:34:26.476Z,2.10
2023-05-04T10:36:55.900Z,1.93
2023-05-04T10:39:25.008Z,2.10
2023-05-04T10:42:02.241Z,2.37
2023-05-04T10:44:33.114Z,1.80
2023-05-04T10:47:04.057Z,2.57
2023-05-04T10:49:34.553Z,2.37
2023-05-04T10:52:14.180Z,2.47
2023-05-04T10:54:44.323Z,2.23
2023-05-04T10:57:18.214Z,2.00
2023-05-04T10:59:58.996Z,2.20
2023-05-04T11:02:32.409Z,1.60
2023-05-04T11:05:04.808Z,2.40
2023-05-04T11:07:38.866Z,3.07
2023-05-04T11:10:09.770Z,2.30
2023-05-04T11:12:40.438Z,2.33
2023-05-04T11:15:11.790Z,2.30
2023-05-04T11:17:47.392Z,1.90
2023-05-04T11:20:23.191Z,1.93
2023-05-04T11:22:52.572Z,2.57
2023-05-04T11:25:29.870Z,2.40
2023-05-04T11:28:01.332Z,1.87
2023-05-04T11:30:36.036Z,1.87
2023-05-04T11:33:13.014Z,1.87
2023-05-04T11:35:44.109Z,2.10
2023-05-04T11:38:15.058Z,1.87
2023-05-04T11:40:49.985Z,2.03
2023-05-04T11:43:20.356Z,1.83
2023-05-04T11:45:51.314Z,2.27
2023-05-04T11:48:21.793Z,2.00
2023-05-04T11:50:52.402Z,1.57
2023-05-04T11:53:23.838Z,1.63
2023-05-04T11:55:54.953Z,2.90
2023-05-04T11:58:27.457Z,2.00
2023-05-04T12:01:01.325Z,1.90
2023-05-04T12:03:51.304Z,1.47
2023-05-04T12:06:32.751Z,1.57
2023-05-04T12:09:06.596Z,1.53
2023-05-04T12:11:38.719Z,1.90
2023-05-04T12:14:10.271Z,1.90
2023-05-04T12:16:43.447Z,1.90
2023-05-04T12:19:14.715Z,1.70
2023-05-04T12:21:52.452Z,1.70
2023-05-04T12:24:23.878Z,1.93
2023-05-04T12:26:53.465Z,2.60
2023-05-04T12:29:22.721Z,2.03
2023-05-04T12:31:53.786Z,1.87
2023-05-04T12:34:22.370Z,1.80
2023-05-04T12:36:54.160Z,1.73
2023-05-04T12:39:23.081Z,1.57
2023-05-04T12:41:52.021Z,1.47
2023-05-04T12:44:21.139Z,2.60
2023-05-04T12:46:50.114Z,1.77
2023-05-04T12:49:24.571Z,2.00
2023-05-04T12:51:54.246Z,2.43
2023-05-04T12:54:23.646Z,2.00
2023-05-04T12:56:54.071Z,1.70
2023-05-04T12:59:24.010Z,1.47
2023-05-04T13:01:53.245Z,1.87
2023-05-04T13:04:26.595Z,2.77
2023-05-04T13:06:55.379Z,1.83
2023-05-04T13:09:24.935Z,1.90
2023-05-04T13:11:54.519Z,1.67
2023-05-04T13:14:23.591Z,1.67
2023-05-04T13:16:52.223Z,1.40
2023-05-04T13:19:23.258Z,2.00
2023-05-04T13:21:52.265Z,2.00
2023-05-04T13:24:22.378Z,2.23
2023-05-04T13:26:50.953Z,1.53
2023-05-04T13:29:20.317Z,2.20
2023-05-04T13:31:49.062Z,1.87
2023-05-04T13:34:18.603Z,1.47
2023-05-04T13:36:48.423Z,2.03
2023-05-04T13:39:16.504Z,2.17
2023-05-04T13:41:44.875Z,1.90
2023-05-04T13:44:12.785Z,1.30
2023-05-04T13:46:41.626Z,2.37
2023-05-04T13:49:10.036Z,1.60
2023-05-04T13:51:38.802Z,2.17
2023-05-04T13:54:09.393Z,1.53
2023-05-04T13:56:39.804Z,2.20
2023-05-04T13:59:08.504Z,1.73
2023-05-04T14:01:37.322Z,1.83
2023-05-04T14:04:07.030Z,1.60
2023-05-04T14:06:35.106Z,1.70
2023-05-04T14:09:03.527Z,2.17
2023-05-04T14:11:33.451Z,1.60
2023-05-04T14:14:01.348Z,2.60
2023-05-04T14:16:29.510Z,1.60
2023-05-04T14:18:58.258Z,2.30
2023-05-04T14:21:26.396Z,2.17
2023-05-04T14:23:54.543Z,1.67
2023-05-04T14:26:22.956Z,2.10
2023-05-04T14:28:52.489Z,2.10
2023-05-04T14:31:20.633Z,2.30
2023-05-04T14:33:48.941Z,1.70
2023-05-04T14:36:17.000Z,1.87
2023-05-04T14:38:44.857Z,2.00
2023-05-04T14:41:13.683Z,1.97
2023-05-04T14:43:41.989Z,2.20
2023-05-04T14:46:12.904Z,2.50
2023-05-04T14:48:41.604Z,1.67
2023-05-04T14:51:09.494Z,2.23
2023-05-04T14:53:39.308Z,1.80
2023-05-04T14:56:08.727Z,1.80
2023-05-04T14:58:37.225Z,1.80
2023-05-04T15:01:06.069Z,2.10
2023-05-04T15:03:35.898Z,2.00
2023-05-04T15:06:04.257Z,1.90
2023-05-04T15:08:32.169Z,2.20
2023-05-04T15:11:01.215Z,1.80
2023-05-04T15:13:29.173Z,2.30
2023-05-04T15:15:57.200Z,1.90
2023-05-04T15:18:26.661Z,1.80
2023-05-04T15:20:55.876Z,1.97
2023-05-04T15:23:23.800Z,1.87
2023-05-04T15:25:52.215Z,1.70
2023-05-04T15:28:22.971Z,2.33
2023-05-04T15:30:51.191Z,2.33
2023-05-04T15:33:19.511Z,2.10
2023-05-04T15:35:47.587Z,1.87
2023-05-04T15:38:18.114Z,2.27
2023-05-04T15:40:46.572Z,2.57
2023-05-04T15:43:15.210Z,2.00
2023-05-04T15:45:43.432Z,1.60
2023-05-04T15:48:12.082Z,2.07
2023-05-04T15:50:40.085Z,1.77
2023-05-04T15:53:08.098Z,1.60
2023-05-04T15:55:37.387Z,1.83
2023-05-04T15:58:06.040Z,2.30
2023-05-04T16:00:34.831Z,1.90
2023-05-04T16:03:03.065Z,1.97
2023-05-04T16:05:31.610Z,2.90
2023-05-04T16:08:00.125Z,2.43
2023-05-04T16:10:28.062Z,2.43
2023-05-04T16:13:00.578Z,2.20
2023-05-04T16:15:28.832Z,2.40
2023-05-04T16:17:57.112Z,2.50
2023-05-04T16:20:25.716Z,3.17
2023-05-04T16:22:53.751Z,1.90
2023-05-04T16:25:22.011Z,1.83
2023-05-04T16:27:50.710Z,1.90
2023-05-04T16:30:21.800Z,2.57
2023-05-04T16:32:50.539Z,2.20
2023-05-04T16:35:18.950Z,2.30
2023-05-04T16:37:47.098Z,1.97
2023-05-04T16:40:17.229Z,2.57
2023-05-04T16:42:46.136Z,2.27
2023-05-04T16:45:15.318Z,1.87
2023-05-04T16:47:45.795Z,2.80
2023-05-04T16:50:14.844Z,1.97
2023-05-04T16:52:43.627Z,2.47
2023-05-04T16:55:12.532Z,2.47
2023-05-04T16:57:40.671Z,2.43
2023-05-04T17:00:10.520Z,2.30
2023-05-04T17:02:38.738Z,2.40
2023-05-04T17:05:11.584Z,2.97
2023-05-04T17:07:42.208Z,2.67
2023-05-04T17:10:11.903Z,2.77
2023-05-04T17:12:40.831Z,2.43
2023-05-04T17:15:10.727Z,2.93
2023-05-04T17:17:39.438Z,2.60
2023-05-04T17:20:14.806Z,3.97
2023-05-04T17:22:43.820Z,2.40
2023-05-04T17:25:12.407Z,2.57
2023-05-04T17:27:41.236Z,2.47
2023-05-04T17:30:11.066Z,2.80
2023-05-04T17:32:39.573Z,2.93
2023-05-04T17:35:21.178Z,3.20
2023-05-04T17:37:57.608Z,2.40
2023-05-04T17:40:27.184Z,2.23
2023-05-04T17:42:55.435Z,2.30
2023-05-04T17:45:24.008Z,2.83
2023-05-04T17:47:52.931Z,2.97
2023-05-04T17:50:22.658Z,2.47
2023-05-04T17:52:54.305Z,2.30
2023-05-04T17:55:23.960Z,2.47
2023-05-04T17:57:53.050Z,3.33
2023-05-04T18:00:22.253Z,2.90
2023-05-04T18:02:50.809Z,2.90
2023-05-04T18:05:19.533Z,3.00
2023-05-04T18:07:49.017Z,4.00
2023-05-04T18:10:17.522Z,3.27
2023-05-04T18:12:45.675Z,3.27
2023-05-04T18:15:13.583Z,3.40
2023-05-04T18:17:42.020Z,3.37
2023-05-04T18:20:12.701Z,3.37
2023-05-04T18:22:41.548Z,2.63
2023-05-04T18:25:11.608Z,2.80
2023-05-04T18:27:39.574Z,3.80
2023-05-04T18:30:09.916Z,3.07
2023-05-04T18:32:38.140Z,4.13
2023-05-04T18:35:06.919Z,2.83
2023-05-04T18:37:35.487Z,3.93
2023-05-04T18:40:04.672Z,2.70
2023-05-04T18:42:34.918Z,3.67
2023-05-04T18:45:03.029Z,2.70
2023-05-04T18:47:31.437Z,3.10
2023-05-04T18:50:00.894Z,3.07
2023-05-04T18:52:28.996Z,2.83
2023-05-04T18:54:57.084Z,2.90
2023-05-04T18:57:26.455Z,2.77
2023-05-04T18:59:56.529Z,2.80
2023-05-04T19:02:26.046Z,2.57
2023-05-04T19:04:54.128Z,2.60
2023-05-04T19:07:22.145Z,2.63
2023-05-04T19:09:50.507Z,2.60
2023-05-04T19:12:18.616Z,2.90
2023-05-04T19:14:46.933Z,3.47
2023-05-04T19:17:17.701Z,4.40
2023-05-04T19:19:45.496Z,3.23
2023-05-04T19:22:16.066Z,3.50
2023-05-04T19:24:44.005Z,3.00
2023-05-04T19:27:11.955Z,2.47
2023-05-04T19:29:40.198Z,3.60
2023-05-04T19:32:19.990Z,3.30
2023-05-04T19:34:54.231Z,3.00
2023-05-04T19:37:22.164Z,2.50
2023-05-04T19:39:50.891Z,2.80
2023-05-04T19:42:18.848Z,3.37
2023-05-04T19:44:46.715Z,2.70
2023-05-04T19:47:14.987Z,2.80
2023-05-04T19:49:44.304Z,2.63
2023-05-04T19:52:13.876Z,3.00
2023-05-04T19:54:42.559Z,2.70
2023-05-04T19:57:11.412Z,3.17
2023-05-04T19:59:40.039Z,3.47
2023-05-04T20:02:09.192Z,3.33
2023-05-04T20:04:37.501Z,3.30
2023-05-04T20:07:05.499Z,3.77
2023-05-04T20:09:35.213Z,3.33
2023-05-04T20:12:03.222Z,3.90
2023-05-04T20:14:31.431Z,3.50
2023-05-04T20:16:59.865Z,3.60
2023-05-04T20:19:28.079Z,3.23
2023-05-04T20:21:55.949Z,4.20
2023-05-04T20:24:24.327Z,3.10
2023-05-04T20:26:53.943Z,3.47
2023-05-04T20:29:22.008Z,3.17
2023-05-04T20:31:50.512Z,3.40
2023-05-04T20:34:19.152Z,3.20
2023-05-04T20:36:47.850Z,3.80
2023-05-04T20:39:15.782Z,2.90
2023-05-04T20:41:44.378Z,4.23
2023-05-04T20:44:14.147Z,3.50
2023-05-04T20:46:42.443Z,4.17
2023-05-04T20:49:11.400Z,3.30
2023-05-04T20:51:39.573Z,3.03
2023-05-04T20:54:07.602Z,3.30
2023-05-04T20:56:35.677Z,3.07
2023-05-04T20:59:03.586Z,6.00
2023-05-04T21:01:33.118Z,3.53
2023-05-04T21:04:01.523Z,2.87
2023-05-04T21:06:30.028Z,3.30
2023-05-04T21:08:58.096Z,3.43
2023-05-04T21:11:26.702Z,3.40
2023-05-04T21:13:54.976Z,2.83
2023-05-04T21:16:23.029Z,3.03
2023-05-04T21:18:52.987Z,3.30
2023-05-04T21:21:21.054Z,4.77
2023-05-04T21:23:49.521Z,3.70
2023-05-04T21:26:17.513Z,2.80
2023-05-04T21:28:46.463Z,3.50
2023-05-04T21:31:15.845Z,3.43
2023-05-04T21:33:43.902Z,2.63
2023-05-04T21:36:14.612Z,3.30
2023-05-04T21:38:43.502Z,3.50
2023-05-04T21:41:12.764Z,5.33
2023-05-04T21:43:40.653Z,3.63
2023-05-04T21:46:09.511Z,3.70
2023-05-04T21:48:37.622Z,3.40
2023-05-04T21:51:05.942Z,3.43
2023-05-04T21:53:36.043Z,2.83
2023-05-04T21:56:08.792Z,3.03
2023-05-04T21:58:39.995Z,4.17
2023-05-04T22:01:08.398Z,3.50
2023-05-04T22:03:36.556Z,2.93
2023-05-04T22:06:05.275Z,3.50
2023-05-04T22:08:33.662Z,3.70
2023-05-04T22:11:03.387Z,3.03
2023-05-04T22:13:31.257Z,3.33
2023-05-04T22:15:59.120Z,3.73
2023-05-04T22:18:27.505Z,3.70
2023-05-04T22:20:55.516Z,4.07
2023-05-04T22:23:24.368Z,2.97
2023-05-04T22:25:52.790Z,3.60
2023-05-04T22:28:22.281Z,3.73
2023-05-04T22:30:50.148Z,4.90
2023-05-04T22:33:18.333Z,3.73
2023-05-04T22:35:46.220Z,3.90
2023-05-04T22:38:15.044Z,4.43
2023-05-04T22:40:44.138Z,3.83
2023-05-04T22:43:12.674Z,3.40
2023-05-04T22:45:42.042Z,4.10
2023-05-04T22:48:10.070Z,3.63
2023-05-04T22:50:38.473Z,3.97
2023-05-04T22:53:06.930Z,3.70
2023-05-04T22:55:35.249Z,4.50
2023-05-04T22:58:03.557Z,4.30
2023-05-04T23:00:31.872Z,4.10
2023-05-04T23:03:01.496Z,4.30
2023-05-04T23:05:29.806Z,3.87
2023-05-04T23:07:57.698Z,4.07
2023-05-04T23:10:26.146Z,4.33
2023-05-04T23:12:54.573Z,5.03
2023-05-04T23:15:24.418Z,3.60
2023-05-04T23:17:53.609Z,4.40
2023-05-04T23:20:23.281Z,4.50
2023-05-04T23:22:51.224Z,4.03
2023-05-04T23:25:19.891Z,4.10
2023-05-04T23:27:47.759Z,4.70
2023-05-04T23:30:15.692Z,4.30
2023-05-04T23:32:44.217Z,4.33
2023-05-04T23:35:12.089Z,5.20
2023-05-04T23:37:41.248Z,5.17
2023-05-04T23:40:10.926Z,4.73
2023-05-04T23:42:38.781Z,5.60
2023-05-04T23:45:07.867Z,6.70
2023-05-04T23:47:36.257Z,6.00
2023-05-04T23:50:04.239Z,7.77
2023-05-04T23:52:32.162Z,6.03
2023-05-04T23:55:01.890Z,7.00
2023-05-04T23:57:30.294Z,6.10
2023-05-04T23:59:58.014Z,7.70
